Time;durP1;ratioP1;P1;durP2;ratioP2;P2;SDS_P1;SDS_P2;PMS_P1;PMS_P2;Temp;Humidity;BMP_temperature;BMP_pressure;BME280_temperature;BME280_humidity;BME280_pressure;Samples;Min_cycle;Max_cycle;Signal;HPM_P1;HPM_P2
2022/10/24 00:01:36;;;;;;;13.47;3.87;;;;;;;15.96;90.40;99931.38;4972157;28;20404;-76
2022/10/24 00:04:02;;;;;;;9.80;3.30;;;;;;;15.95;90.38;99929.75;4972682;28;20407;-76
2022/10/24 00:06:27;;;;;;;9.63;3.13;;;;;;;15.93;90.34;99924.59;4974930;28;20412;-76
2022/10/24 00:08:53;;;;;;;8.57;3.13;;;;;;;15.94;90.23;99922.63;4975463;28;20787;-76
2022/10/24 00:11:24;;;;;;;13.18;3.38;;;;;;;15.94;90.23;99919.91;4975343;28;20408;-75
2022/10/24 00:13:51;;;;;;;13.73;3.22;;;;;;;15.95;89.84;99922.38;4975395;28;20483;-76
2022/10/24 00:16:17;;;;;;;15.02;3.63;;;;;;;15.93;90.14;99915.56;4972785;28;20412;-76
2022/10/24 00:18:43;;;;;;;7.78;3.10;;;;;;;15.95;90.12;99918.81;4974128;28;20396;-76
2022/10/24 00:21:09;;;;;;;11.13;3.20;;;;;;;15.96;90.01;99914.97;4974748;28;20414;-75
2022/10/24 00:23:35;;;;;;;8.88;3.50;;;;;;;15.96;89.92;99904.88;4974338;28;20462;-76
2022/10/24 00:26:02;;;;;;;12.10;3.42;;;;;;;15.96;89.89;99896.66;4975241;28;20891;-76
2022/10/24 00:28:29;;;;;;;11.93;3.17;;;;;;;15.93;89.92;99893.72;4974889;28;20428;-76
2022/10/24 00:30:54;;;;;;;6.95;3.03;;;;;;;15.94;89.92;99904.34;4975192;28;20423;-76
2022/10/24 00:33:19;;;;;;;8.90;3.20;;;;;;;15.91;89.66;99899.44;4974888;28;20400;-76
2022/10/24 00:35:45;;;;;;;13.33;3.53;;;;;;;15.88;89.95;99900.03;4974322;28;20492;-76
2022/10/24 00:38:10;;;;;;;10.50;3.40;;;;;;;15.86;89.87;99906.91;4975036;28;20400;-76
2022/10/24 00:40:36;;;;;;;9.03;3.27;;;;;;;15.83;89.93;99908.31;4974930;28;20499;-76
2022/10/24 00:43:01;;;;;;;14.90;3.43;;;;;;;15.83;89.75;99916.50;5006165;28;20887;-76
2022/10/24 00:45:30;;;;;;;9.00;2.97;;;;;;;15.84;89.87;99917.34;4973490;28;20416;-75
2022/10/24 00:47:55;;;;;;;10.15;2.80;;;;;;;15.82;89.73;99919.53;5006154;28;20416;-76
2022/10/24 00:50:21;;;;;;;16.40;3.63;;;;;;;15.80;89.77;99913.56;4974221;28;20416;-76
2022/10/24 00:52:46;;;;;;;11.30;3.23;;;;;;;15.78;89.63;99915.75;4973436;28;20759;-76
2022/10/24 00:55:13;;;;;;;9.90;3.33;;;;;;;15.74;89.54;99915.50;4971821;28;20404;-76
2022/10/24 00:57:46;;;;;;;9.63;2.67;;;;;;;15.72;89.52;99919.66;4974441;28;20903;-76
2022/10/24 01:00:18;;;;;;;9.30;3.10;;;;;;;15.71;89.79;99916.09;4974705;28;20961;-76
2022/10/24 01:02:44;;;;;;;11.50;2.72;;;;;;;15.69;89.71;99922.97;4974512;28;20471;-76
2022/10/24 01:05:11;;;;;;;14.77;3.40;;;;;;;15.67;89.84;99917.81;4972912;28;20419;-76
2022/10/24 01:08:08;;;;;;;10.17;2.43;;;;;;;15.68;90.02;99911.22;4973665;28;20902;-76
2022/10/24 01:10:52;;;;;;;8.57;2.93;;;;;;;15.67;89.82;99908.78;4970439;28;20510;-76
2022/10/24 01:13:54;;;;;;;22.13;3.40;;;;;;;15.67;89.52;99906.06;4974450;28;20498;-76
2022/10/24 01:16:28;;;;;;;7.38;2.55;;;;;;;15.64;89.56;99899.28;4973323;28;20411;-76
2022/10/24 01:22:23;;;;;;;8.85;2.75;;;;;;;15.58;89.73;99897.69;4973646;28;20775;-76
2022/10/24 01:25:22;;;;;;;9.43;2.60;;;;;;;15.60;89.56;99892.75;4972091;28;20473;-76
2022/10/24 01:27:53;;;;;;;9.48;2.83;;;;;;;15.60;89.50;99883.75;5005472;28;20416;-76
2022/10/24 01:30:19;;;;;;;7.53;2.77;;;;;;;15.58;89.60;99890.31;4973908;28;20440;-76
2022/10/24 01:32:53;;;;;;;14.53;3.07;;;;;;;15.57;89.54;99885.97;4974026;28;20407;-76
2022/10/24 01:35:34;;;;;;;8.73;2.67;;;;;;;15.59;89.57;99877.47;5004321;28;20424;-76
2022/10/24 01:38:10;;;;;;;9.90;2.60;;;;;;;15.61;89.23;99880.72;4974047;28;20439;-76
2022/10/24 01:40:44;;;;;;;7.03;2.42;;;;;;;15.61;89.39;99871.72;4973802;28;20412;-76
2022/10/24 01:43:12;;;;;;;9.13;2.80;;;;;;;15.61;89.28;99879.91;4973614;28;20409;-76
2022/10/24 01:45:43;;;;;;;12.45;3.05;;;;;;;15.60;89.21;99879.09;4972540;28;20429;-76
2022/10/24 01:48:13;;;;;;;10.07;2.47;;;;;;;15.60;89.11;99875.56;4973509;28;20430;-75
2022/10/24 01:50:41;;;;;;;9.77;2.10;;;;;;;15.58;89.21;99873.91;4973666;28;20412;-76
2022/10/24 01:53:08;;;;;;;10.82;2.55;;;;;;;15.56;89.41;99876.13;4973698;28;20403;-76
2022/10/24 01:55:36;;;;;;;12.75;2.75;;;;;;;15.55;89.29;99882.69;4972540;28;20447;-76
2022/10/24 01:58:01;;;;;;;6.47;2.17;;;;;;;15.56;89.15;99881.59;4973597;28;20407;-76
2022/10/24 02:00:26;;;;;;;5.60;2.03;;;;;;;15.54;89.25;99878.34;4973633;28;20487;-76
2022/10/24 02:02:57;;;;;;;9.20;1.90;;;;;;;15.54;89.09;99880.28;4971372;28;20413;-76
2022/10/24 02:05:29;;;;;;;9.98;2.45;;;;;;;15.53;89.19;99878.63;4972046;28;20408;-76
2022/10/24 02:07:59;;;;;;;6.57;1.80;;;;;;;15.53;89.16;99874.00;4970947;28;20488;-76
2022/10/24 02:10:29;;;;;;;12.40;2.50;;;;;;;15.53;89.09;99876.72;4973493;28;20415;-76
2022/10/24 02:13:08;;;;;;;12.10;2.80;;;;;;;15.53;89.07;99870.44;4973193;28;20404;-76
2022/10/24 02:15:40;;;;;;;9.60;2.17;;;;;;;15.52;89.09;99869.63;4972457;28;20416;-76
2022/10/24 02:18:07;;;;;;;8.32;2.45;;;;;;;15.52;89.19;99877.00;4973181;28;20407;-76
2022/10/24 02:20:35;;;;;;;9.60;1.95;;;;;;;15.51;88.94;99864.47;4973227;28;20896;-76
2022/10/24 02:23:32;;;;;;;5.03;1.85;;;;;;;15.51;89.01;99870.72;4972991;28;20415;-76
2022/10/24 02:26:01;;;;;;;8.43;2.63;;;;;;;15.51;88.87;99868.00;4970494;28;20416;-76
2022/10/24 02:28:32;;;;;;;6.22;2.05;;;;;;;15.53;88.91;99859.53;4963635;28;20430;-76
2022/10/24 02:31:11;;;;;;;12.85;2.38;;;;;;;15.53;89.10;99868.53;4971796;28;20407;-76
2022/10/24 02:33:38;;;;;;;12.68;2.55;;;;;;;15.53;88.94;99867.72;4972923;28;20414;-76
2022/10/24 02:36:06;;;;;;;10.77;2.33;;;;;;;15.53;88.99;99870.44;4967745;28;20491;-76
2022/10/24 02:38:36;;;;;;;8.10;2.40;;;;;;;15.52;89.30;99866.91;4972827;28;20903;-76
2022/10/24 02:41:07;;;;;;;7.77;2.07;;;;;;;15.52;89.11;99858.72;4973016;28;20452;-76
2022/10/24 02:43:33;;;;;;;11.05;2.30;;;;;;;15.52;88.88;99849.69;4972813;28;20412;-76
2022/10/24 02:45:59;;;;;;;7.28;2.45;;;;;;;15.51;88.91;99850.81;4972122;28;20430;-76
2022/10/24 02:48:31;;;;;;;17.98;4.88;;;;;;;15.52;89.04;99841.50;4972552;28;20423;-76
2022/10/24 02:50:57;;;;;;;13.15;5.07;;;;;;;15.53;89.05;99848.59;4972839;28;20493;-76
2022/10/24 02:53:24;;;;;;;12.18;2.90;;;;;;;15.54;89.27;99851.03;4972828;28;20400;-75
2022/10/24 02:55:49;;;;;;;13.25;2.42;;;;;;;15.54;89.11;99859.22;4970515;28;20423;-76
2022/10/24 02:58:15;;;;;;;11.83;2.47;;;;;;;15.57;89.25;99858.66;4972003;28;20420;-76
2022/10/24 03:00:40;;;;;;;9.00;2.67;;;;;;;15.56;88.93;99850.75;4972459;28;20906;-76
2022/10/24 03:03:06;;;;;;;10.35;3.15;;;;;;;15.55;89.16;99846.38;4972580;28;20506;-76
2022/10/24 03:05:31;;;;;;;7.67;2.40;;;;;;;15.54;89.20;99853.75;4971992;28;20511;-76
2022/10/24 03:07:56;;;;;;;8.57;2.50;;;;;;;15.56;89.11;99854.28;4972340;28;20887;-76
2022/10/24 03:10:22;;;;;;;7.40;2.30;;;;;;;15.58;88.90;99860.25;4972576;28;20416;-75
2022/10/24 03:12:47;;;;;;;8.57;2.10;;;;;;;15.58;89.00;99867.63;4972460;28;20412;-76
2022/10/24 03:15:13;;;;;;;8.17;2.40;;;;;;;15.58;88.84;99873.91;4971939;28;20796;-76
2022/10/24 03:17:38;;;;;;;7.77;2.50;;;;;;;15.60;88.65;99876.38;4971667;28;20411;-76
2022/10/24 03:20:04;;;;;;;9.43;2.78;;;;;;;15.62;88.58;99889.72;4972455;28;20422;-76
2022/10/24 03:22:29;;;;;;;8.90;2.77;;;;;;;15.64;88.41;99896.53;4972655;28;20439;-76
2022/10/24 03:24:54;;;;;;;12.30;2.63;;;;;;;15.65;88.40;99884.50;4971483;28;20752;-76
2022/10/24 03:27:20;;;;;;;17.20;3.30;;;;;;;15.65;88.55;99886.41;4971148;28;20914;-76
2022/10/24 03:29:45;;;;;;;9.48;3.13;;;;;;;15.64;88.69;99893.00;4972328;28;20458;-76
2022/10/24 03:32:10;;;;;;;10.93;2.60;;;;;;;15.63;88.77;99886.72;4972266;28;20404;-76
2022/10/24 03:34:36;;;;;;;8.30;2.90;;;;;;;15.64;88.63;99888.34;4972604;28;20408;-76
2022/10/24 03:37:01;;;;;;;9.85;2.92;;;;;;;15.63;88.87;99875.78;4971348;28;20428;-75
2022/10/24 03:39:26;;;;;;;7.80;2.30;;;;;;;15.63;88.73;99881.25;4974929;28;20416;-76
2022/10/24 03:41:52;;;;;;;8.00;2.30;;;;;;;15.60;88.97;99890.03;4976208;28;20408;-76
2022/10/24 03:44:17;;;;;;;5.80;2.47;;;;;;;15.60;88.84;99883.75;4975866;28;20502;-76
2022/10/24 03:46:42;;;;;;;10.30;2.60;;;;;;;15.58;89.10;99884.84;5006502;28;20420;-75
2022/10/24 03:49:07;;;;;;;10.30;2.33;;;;;;;15.55;89.11;99882.69;4976172;28;20423;-75
2022/10/24 03:51:33;;;;;;;9.20;2.57;;;;;;;15.51;89.25;99887.09;4975850;28;20410;-75
2022/10/24 03:53:58;;;;;;;12.70;2.80;;;;;;;15.51;89.30;99887.09;4976056;28;20914;-75
2022/10/24 03:56:23;;;;;;;12.57;2.73;;;;;;;15.51;89.45;99880.84;4973793;28;20479;-75
2022/10/24 03:58:49;;;;;;;10.17;2.37;;;;;;;15.51;89.42;99881.66;4975662;28;20469;-75
2022/10/24 04:01:17;;;;;;;9.63;2.63;;;;;;;15.50;89.29;99880.03;4975558;28;20415;-75
2022/10/24 04:03:43;;;;;;;10.10;2.60;;;;;;;15.51;89.54;99889.06;4990188;28;20450;-75
2022/10/24 04:06:08;;;;;;;7.97;2.58;;;;;;;15.51;89.49;99902.72;4972987;28;20420;-75
2022/10/24 04:08:34;;;;;;;10.37;3.80;;;;;;;15.51;89.23;99899.97;4974247;28;20446;-75
2022/10/24 04:10:59;;;;;;;13.60;3.33;;;;;;;15.51;89.06;99906.22;4975457;28;20415;-75
2022/10/24 04:13:24;;;;;;;7.93;2.80;;;;;;;15.53;88.92;99911.41;4975477;28;20836;-75
2022/10/24 04:15:49;;;;;;;8.83;3.00;;;;;;;15.53;89.12;99920.41;4972534;28;20404;-75
2022/10/24 04:18:15;;;;;;;11.77;3.43;;;;;;;15.55;89.16;99918.19;4977643;28;20401;-75
2022/10/24 04:20:40;;;;;;;10.63;2.93;;;;;;;15.56;89.11;99924.47;4975304;28;20771;-75
2022/10/24 04:23:05;;;;;;;8.53;2.97;;;;;;;15.58;89.16;99925.00;4972223;28;20908;-75
2022/10/24 04:25:31;;;;;;;10.97;2.77;;;;;;;15.58;89.34;99919.53;4968705;28;20455;-75
2022/10/24 04:27:56;;;;;;;8.80;3.07;;;;;;;15.62;89.01;99917.84;4972811;28;20466;-75
2022/10/24 04:30:21;;;;;;;10.20;2.70;;;;;;;15.61;89.11;99918.16;4974898;28;20768;-75
2022/10/24 04:32:46;;;;;;;18.20;3.27;;;;;;;15.58;89.40;99908.59;4973356;28;20420;-75
2022/10/24 04:35:13;;;;;;;6.93;2.73;;;;;;;15.56;89.52;99902.63;4974344;28;20423;-75
2022/10/24 04:37:38;;;;;;;13.13;2.85;;;;;;;15.56;89.64;99899.91;4971262;28;20435;-75
2022/10/24 04:40:04;;;;;;;12.80;2.63;;;;;;;15.55;89.75;99893.63;4974887;28;20400;-76
2022/10/24 04:42:29;;;;;;;7.15;3.35;;;;;;;15.58;89.60;99901.22;4975243;28;20408;-77
2022/10/24 04:44:54;;;;;;;11.75;3.00;;;;;;;15.61;89.69;99909.97;4969019;28;20416;-76
2022/10/24 04:47:20;;;;;;;13.93;4.00;;;;;;;15.62;89.71;99947.06;4981219;28;20411;-75
2022/10/24 04:49:45;;;;;;;12.17;3.43;;;;;;;15.57;89.61;99928.84;4973883;28;20419;-75
2022/10/24 04:52:10;;;;;;;15.50;4.18;;;;;;;15.64;89.78;99923.03;4973141;28;20891;-76
2022/10/24 04:54:36;;;;;;;11.70;3.37;;;;;;;15.73;89.48;99926.75;4971954;28;20769;-75
2022/10/24 04:57:01;;;;;;;12.47;3.30;;;;;;;15.82;89.21;99930.47;4973061;28;20414;-74
2022/10/24 04:59:26;;;;;;;9.15;2.92;;;;;;;15.88;89.00;99929.28;4984512;28;20479;-75
2022/10/24 05:01:53;;;;;;;13.63;4.17;;;;;;;15.91;89.18;99937.72;4976793;28;20783;-75
2022/10/24 05:04:19;;;;;;;13.55;3.35;;;;;;;15.95;88.88;99927.81;4978404;28;20859;-74
2022/10/24 05:06:45;;;;;;;14.25;3.50;;;;;;;15.98;88.83;99940.09;4974408;28;20440;-75
2022/10/24 05:09:10;;;;;;;11.33;3.87;;;;;;;15.99;88.71;99937.06;4974527;28;20438;-75
2022/10/24 05:11:35;;;;;;;11.33;3.23;;;;;;;16.00;88.70;99946.88;4968346;28;20410;-74
2022/10/24 05:14:01;;;;;;;13.17;3.53;;;;;;;16.00;88.70;99949.63;4973642;28;20412;-75
2022/10/24 05:16:26;;;;;;;13.83;3.47;;;;;;;15.98;88.86;99957.31;4978633;28;20404;-75
2022/10/24 05:18:51;;;;;;;13.07;3.40;;;;;;;15.98;89.05;99951.00;4973629;28;20403;-75
2022/10/24 05:21:17;;;;;;;12.00;3.63;;;;;;;15.95;89.05;99959.81;4975937;28;20404;-76
2022/10/24 05:23:42;;;;;;;8.87;3.63;;;;;;;15.94;89.23;99945.31;4975466;28;20408;-75
2022/10/24 05:26:08;;;;;;;14.27;3.93;;;;;;;15.94;89.17;99953.53;4976341;28;20428;-75
2022/10/24 05:28:33;;;;;;;16.30;4.30;;;;;;;15.97;89.01;99952.16;4972776;28;20899;-74
2022/10/24 05:30:59;;;;;;;10.67;3.60;;;;;;;15.96;89.24;99951.31;4973716;28;20808;-74
2022/10/24 05:33:24;;;;;;;11.45;3.78;;;;;;;16.00;89.09;99954.28;4973537;28;20408;-74
2022/10/24 05:35:50;;;;;;;12.93;3.80;;;;;;;16.04;88.82;99947.94;4974006;28;20412;-74
2022/10/24 05:38:15;;;;;;;10.65;3.50;;;;;;;16.08;88.75;99948.97;4973972;28;20470;-74
2022/10/24 05:40:41;;;;;;;14.43;3.70;;;;;;;16.11;88.57;99933.91;4973455;28;20487;-74
2022/10/24 05:43:06;;;;;;;14.30;3.70;;;;;;;16.15;88.49;99951.34;4974141;28;20476;-75
2022/10/24 05:45:31;;;;;;;10.20;3.20;;;;;;;16.21;88.51;99949.34;4970902;28;20407;-74
2022/10/24 05:47:57;;;;;;;11.98;3.65;;;;;;;16.24;88.58;99935.09;4973560;28;20884;-74
2022/10/24 05:50:22;;;;;;;10.63;3.43;;;;;;;16.24;88.48;99927.72;4981276;28;20408;-74
2022/10/24 05:52:47;;;;;;;12.98;3.53;;;;;;;16.26;88.47;99930.16;4973610;28;20412;-74
2022/10/24 05:55:13;;;;;;;11.23;3.47;;;;;;;16.30;88.28;99929.25;4973505;28;20761;-74
2022/10/24 05:57:38;;;;;;;15.20;3.83;;;;;;;16.31;88.24;99938.28;4968168;28;20915;-74
2022/10/24 06:00:10;;;;;;;11.88;3.47;;;;;;;16.27;88.28;99959.91;4971598;28;20419;-74
2022/10/24 06:02:35;;;;;;;14.10;3.17;;;;;;;16.28;88.58;99960.75;4954448;28;20799;-76
2022/10/24 06:05:01;;;;;;;12.83;3.10;;;;;;;16.28;88.48;99963.47;4969863;28;20502;-75
2022/10/24 06:07:26;;;;;;;15.30;3.60;;;;;;;16.27;88.71;99967.34;4973367;28;20772;-75
2022/10/24 06:09:51;;;;;;;10.80;3.70;;;;;;;16.28;88.92;99968.94;4972694;28;20396;-75
2022/10/24 06:12:17;;;;;;;13.27;4.07;;;;;;;16.29;88.78;99979.59;4972333;28;20459;-75
2022/10/24 06:14:43;;;;;;;12.77;3.80;;;;;;;16.28;88.85;99977.97;5002329;28;21183;-74
2022/10/24 06:17:10;;;;;;;8.93;3.63;;;;;;;16.27;89.16;99981.00;4979104;28;20394;-74
2022/10/24 06:19:36;;;;;;;14.82;3.90;;;;;;;16.27;89.19;99981.78;4971922;28;20419;-74
2022/10/24 06:22:02;;;;;;;11.48;3.42;;;;;;;16.27;89.13;99976.31;5003256;28;20419;-74
2022/10/24 06:24:28;;;;;;;9.77;3.08;;;;;;;16.27;89.23;99983.75;4974458;28;20411;-74
2022/10/24 06:26:53;;;;;;;10.77;3.37;;;;;;;16.27;89.35;99997.41;4971025;28;20399;-74
2022/10/24 06:29:18;;;;;;;10.13;3.47;;;;;;;16.32;89.09;100006.34;4971676;28;20430;-74
2022/10/24 06:31:44;;;;;;;9.43;3.07;;;;;;;16.36;88.91;100009.31;4971367;28;20427;-74
2022/10/24 06:34:09;;;;;;;6.70;2.53;;;;;;;16.38;88.91;100004.34;4971007;28;20491;-74
2022/10/24 06:36:35;;;;;;;8.00;2.80;;;;;;;16.44;88.61;100011.38;4970712;28;20416;-73
2022/10/24 06:39:01;;;;;;;10.05;2.08;;;;;;;16.50;87.76;100015.66;4967957;28;20990;-73
2022/10/24 06:41:26;;;;;;;5.50;2.30;;;;;;;16.49;87.49;100020.34;4960716;28;20457;-74
2022/10/24 06:43:52;;;;;;;9.10;2.70;;;;;;;16.49;87.21;100025.81;4964662;28;20917;-74
2022/10/24 06:46:22;;;;;;;9.88;2.17;;;;;;;16.51;86.91;100020.03;4957667;28;20406;-73
2022/10/24 06:48:51;;;;;;;8.40;2.22;;;;;;;16.50;86.66;100021.13;4957497;28;20915;-74
2022/10/24 06:51:16;;;;;;;8.40;2.03;;;;;;;16.49;86.45;100023.09;4965449;28;20470;-74
2022/10/24 06:53:42;;;;;;;3.77;1.97;;;;;;;16.49;86.55;100017.63;4969967;28;20400;-74
2022/10/24 06:56:07;;;;;;;12.30;2.20;;;;;;;16.49;86.27;100025.00;4970017;28;20451;-74
2022/10/24 06:58:36;;;;;;;5.77;1.60;;;;;;;16.49;86.05;100028.56;4971086;28;20823;-74
2022/10/24 07:01:14;;;;;;;6.93;1.80;;;;;;;16.50;86.09;100027.44;4970107;28;20442;-74
2022/10/24 07:03:40;;;;;;;3.42;1.42;;;;;;;16.48;86.17;100026.09;4971052;28;20422;-74
2022/10/24 07:06:13;;;;;;;5.18;1.55;;;;;;;16.48;85.87;100009.69;5010324;28;20396;-74
2022/10/24 07:08:39;;;;;;;4.25;1.70;;;;;;;16.49;86.15;100012.16;4977823;28;20422;-74
2022/10/24 07:11:04;;;;;;;5.40;1.87;;;;;;;16.50;86.23;100011.03;4972430;28;20471;-74
2022/10/24 07:13:29;;;;;;;6.73;1.90;;;;;;;16.52;86.29;100024.41;5006556;28;20449;-74
2022/10/24 07:15:55;;;;;;;5.85;2.42;;;;;;;16.56;86.09;100023.53;4975965;28;20412;-74
2022/10/24 07:18:20;;;;;;;11.67;2.30;;;;;;;16.55;86.21;100030.16;4975652;28;20418;-74
2022/10/24 07:20:46;;;;;;;4.97;1.93;;;;;;;16.56;86.22;100036.44;4980133;28;20407;-74
2022/10/24 07:23:11;;;;;;;6.47;1.97;;;;;;;16.54;86.20;100039.41;4975027;28;20408;-75
2022/10/24 07:25:38;;;;;;;3.60;1.80;;;;;;;16.54;86.63;100042.16;4975352;28;20431;-74
2022/10/24 07:28:04;;;;;;;6.28;2.13;;;;;;;16.59;86.35;100038.56;4975257;28;20423;-74
2022/10/24 07:30:30;;;;;;;6.35;1.95;;;;;;;16.63;86.15;100036.06;4973966;28;20402;-74
2022/10/24 07:32:55;;;;;;;9.30;1.93;;;;;;;16.68;86.18;100038.72;4973220;28;20423;-74
2022/10/24 07:35:20;;;;;;;7.03;2.10;;;;;;;16.73;85.93;100036.72;4974665;28;20415;-74
2022/10/24 07:37:46;;;;;;;7.32;2.33;;;;;;;16.74;85.99;100043.00;4974854;28;20430;-74
2022/10/24 07:40:11;;;;;;;7.97;2.07;;;;;;;16.76;86.08;100052.53;4974397;28;20423;-74
2022/10/24 07:42:36;;;;;;;5.22;1.75;;;;;;;16.80;86.13;100047.28;4975489;28;20396;-74
2022/10/24 07:45:03;;;;;;;5.40;2.37;;;;;;;16.84;85.69;100042.84;4975084;28;20404;-74
2022/10/24 07:47:28;;;;;;;7.05;2.08;;;;;;;16.82;85.79;100032.22;4974460;28;20404;-74
2022/10/24 07:49:53;;;;;;;5.35;2.25;;;;;;;16.79;86.04;100034.75;4997345;28;20897;-74
2022/10/24 07:52:19;;;;;;;5.03;1.97;;;;;;;16.79;86.16;100032.00;4974418;28;20817;-73
2022/10/24 07:54:44;;;;;;;7.47;1.83;;;;;;;16.78;86.15;100028.44;4975294;28;20404;-74
2022/10/24 07:57:09;;;;;;;4.70;2.30;;;;;;;16.81;86.35;100037.97;4974815;28;20404;-74
2022/10/24 07:59:34;;;;;;;7.20;2.10;;;;;;;16.82;86.07;100034.97;4975242;28;20415;-74
2022/10/24 08:02:00;;;;;;;5.40;2.10;;;;;;;16.82;86.28;100034.16;4974125;28;20408;-74
2022/10/24 08:04:25;;;;;;;5.30;2.17;;;;;;;16.89;85.92;100031.84;4967505;28;20451;-74
2022/10/24 08:06:50;;;;;;;8.25;2.10;;;;;;;16.97;85.51;100029.25;4974571;28;20433;-74
2022/10/24 08:09:17;;;;;;;8.83;2.70;;;;;;;16.98;85.94;100033.63;4974415;28;20479;-74
2022/10/24 08:11:42;;;;;;;6.85;2.40;;;;;;;17.01;85.85;100035.75;4975247;28;20503;-74
2022/10/24 08:14:07;;;;;;;4.77;2.10;;;;;;;17.04;85.71;100018.75;4974456;28;20507;-74
2022/10/24 08:16:33;;;;;;;5.03;1.97;;;;;;;17.05;85.62;100023.13;4974076;28;20407;-74
2022/10/24 08:18:58;;;;;;;5.30;1.97;;;;;;;17.04;85.69;100028.88;5006249;28;20412;-74
2022/10/24 08:21:24;;;;;;;7.13;2.42;;;;;;;17.02;85.88;100034.66;4974542;28;20404;-74
2022/10/24 08:23:52;;;;;;;3.13;1.90;;;;;;;17.00;86.02;100023.19;4973378;28;20409;-74
2022/10/24 08:26:20;;;;;;;5.30;2.50;;;;;;;17.00;86.20;100022.34;4974206;28;20408;-74
2022/10/24 08:28:46;;;;;;;6.32;2.38;;;;;;;17.00;86.34;100022.34;4974833;28;20820;-74
2022/10/24 08:31:16;;;;;;;15.65;2.35;;;;;;;17.00;86.40;100025.91;4972325;28;20969;-74
2022/10/24 08:33:42;;;;;;;4.57;2.30;;;;;;;17.00;86.45;100031.38;4960730;28;20482;-74
2022/10/24 08:36:34;;;;;;;9.17;2.50;;;;;;;17.02;86.45;100031.94;4974121;28;20412;-74
2022/10/24 08:39:00;;;;;;;6.45;2.10;;;;;;;17.06;86.33;100024.72;4972575;28;20412;-74
2022/10/24 08:41:45;;;;;;;7.72;2.50;;;;;;;17.08;86.38;100016.22;4967577;28;20462;-74
2022/10/24 08:44:19;;;;;;;5.65;2.15;;;;;;;17.09;86.43;100020.59;4973034;28;20491;-74
2022/10/24 08:46:49;;;;;;;6.20;2.35;;;;;;;17.08;86.27;100019.78;4974947;28;20433;-74
2022/10/24 08:49:46;;;;;;;5.30;2.20;;;;;;;17.12;86.31;100022.72;4972780;28;20420;-74
2022/10/24 08:52:34;;;;;;;8.73;2.67;;;;;;;17.18;86.15;100027.00;4983389;28;20487;-74
2022/10/24 08:55:08;;;;;;;11.32;2.88;;;;;;;17.20;86.08;100033.00;4970637;28;20412;-74
2022/10/24 08:57:34;;;;;;;8.20;2.50;;;;;;;17.25;85.95;100032.09;4963782;28;20411;-74
2022/10/24 09:00:03;;;;;;;7.87;2.63;;;;;;;17.28;86.05;100029.59;4968685;28;20726;-74
2022/10/24 09:02:36;;;;;;;8.63;2.75;;;;;;;17.32;86.12;100038.81;4972967;28;20400;-74
2022/10/24 09:05:10;;;;;;;5.47;2.28;;;;;;;17.39;85.76;100031.03;5001120;28;20421;-74
2022/10/24 09:07:36;;;;;;;6.30;2.28;;;;;;;17.44;85.66;100027.38;4973874;28;20419;-74
2022/10/24 09:10:15;;;;;;;6.50;2.42;;;;;;;17.52;85.46;100040.38;4971572;28;20423;-74
2022/10/24 09:12:40;;;;;;;5.90;2.88;;;;;;;17.56;85.31;100046.94;4974326;28;20895;-74
2022/10/24 09:15:29;;;;;;;9.67;2.70;;;;;;;17.64;84.73;100035.28;4973978;28;20424;-74
2022/10/24 09:17:56;;;;;;;10.03;2.23;;;;;;;17.68;84.75;100040.97;4966179;28;20411;-74
2022/10/24 09:20:32;;;;;;;9.63;2.40;;;;;;;17.74;84.49;100040.59;4972197;28;20465;-74
2022/10/24 09:23:02;;;;;;;6.30;2.23;;;;;;;17.81;84.39;100051.16;4969379;28;20419;-74
2022/10/24 09:25:32;;;;;;;9.40;2.25;;;;;;;17.82;84.51;100059.06;4977394;28;20494;-74
2022/10/24 09:28:01;;;;;;;7.60;2.33;;;;;;;17.90;84.15;100063.03;4973949;28;20438;-74
2022/10/24 09:30:27;;;;;;;12.23;2.70;;;;;;;17.93;84.15;100060.50;4972629;28;20438;-74
2022/10/24 09:32:58;;;;;;;5.25;2.15;;;;;;;17.96;83.95;100061.81;4973280;28;20432;-74
2022/10/24 09:35:26;;;;;;;5.27;2.10;;;;;;;18.01;83.65;100068.00;4972641;28;20491;-74
2022/10/24 09:37:54;;;;;;;6.00;2.22;;;;;;;18.10;83.46;100079.94;4972679;28;20453;-74
2022/10/24 09:40:26;;;;;;;9.90;2.10;;;;;;;18.15;83.19;100079.81;4970672;28;20416;-74
2022/10/24 09:42:55;;;;;;;4.40;2.33;;;;;;;18.15;83.45;100081.72;4972912;28;20447;-74
2022/10/24 09:45:26;;;;;;;3.05;1.70;;;;;;;18.14;83.73;100089.16;4972884;28;20427;-74
2022/10/24 09:48:02;;;;;;;6.03;2.42;;;;;;;18.15;83.79;100085.28;4973068;28;20763;-74
2022/10/24 09:50:30;;;;;;;7.67;2.10;;;;;;;18.18;83.52;100085.81;4970218;28;20446;-74
2022/10/24 09:52:57;;;;;;;7.70;2.45;;;;;;;18.21;83.51;100085.22;4972938;28;20803;-74
2022/10/24 09:55:27;;;;;;;6.68;2.80;;;;;;;18.25;83.32;100078.78;5001220;28;20407;-74
2022/10/24 09:57:56;;;;;;;8.05;2.90;;;;;;;18.25;83.44;100089.78;4971114;28;20424;-74
2022/10/24 10:00:24;;;;;;;13.13;3.13;;;;;;;18.26;83.23;100090.59;4969510;28;20462;-74
2022/10/24 10:03:20;;;;;;;10.13;3.50;;;;;;;18.23;83.35;100085.72;4966927;28;20470;-74
2022/10/24 10:05:51;;;;;;;8.95;2.97;;;;;;;18.21;83.32;100083.25;4964189;28;20429;-74
2022/10/24 10:08:47;;;;;;;8.68;2.15;;;;;;;18.20;83.35;100097.28;4967750;28;20478;-74
2022/10/24 10:11:13;;;;;;;5.60;2.53;;;;;;;18.20;83.44;100091.81;4985599;28;20419;-74
2022/10/24 10:13:49;;;;;;;6.13;2.60;;;;;;;18.24;83.52;100088.16;4973608;28;20420;-74
2022/10/24 10:16:22;;;;;;;6.05;2.40;;;;;;;18.26;83.43;100094.16;4969787;28;20422;-74
2022/10/24 10:18:47;;;;;;;11.50;3.70;;;;;;;18.28;83.55;100102.06;4960036;28;21052;-74
2022/10/24 10:21:17;;;;;;;7.87;3.00;;;;;;;18.25;83.50;100098.00;4978777;28;20542;-74
2022/10/24 10:23:44;;;;;;;9.40;2.97;;;;;;;18.24;83.60;100101.88;4970907;28;20418;-74
2022/10/24 10:26:23;;;;;;;8.90;3.03;;;;;;;18.25;83.70;100097.19;4964319;28;20411;-74
2022/10/24 10:28:51;;;;;;;9.57;3.60;;;;;;;18.31;83.62;100090.50;4969587;28;20827;-75
2022/10/24 10:31:21;;;;;;;7.07;3.28;;;;;;;18.44;83.18;100089.69;4972295;28;20421;-75
2022/10/24 10:34:14;;;;;;;9.00;3.70;;;;;;;18.63;83.06;100093.97;4968687;28;20407;-75
2022/10/24 10:36:49;;;;;;;8.70;2.70;;;;;;;18.92;81.92;100092.78;4967780;28;20507;-75
2022/10/24 10:39:51;;;;;;;9.45;2.10;;;;;;;19.08;80.86;100105.88;4970497;28;20840;-75
2022/10/24 10:42:56;;;;;;;9.57;3.45;;;;;;;19.07;80.76;100109.72;4986633;28;20755;-75
2022/10/24 10:45:43;;;;;;;8.40;2.88;;;;;;;19.18;80.32;100122.13;4970110;28;20491;-75
2022/10/24 10:48:31;;;;;;;10.07;3.45;;;;;;;19.26;79.92;100128.00;4970252;28;20933;-75
2022/10/24 10:51:21;;;;;;;8.90;3.10;;;;;;;19.29;79.69;100119.94;4971948;28;20414;-75
2022/10/24 10:54:05;;;;;;;8.95;2.63;;;;;;;19.19;79.64;100122.94;5003400;28;20440;-75
2022/10/24 10:56:47;;;;;;;7.28;3.13;;;;;;;19.03;80.16;100135.38;4972103;28;20947;-75
2022/10/24 10:59:32;;;;;;;4.90;2.72;;;;;;;18.97;79.84;100137.41;4971957;28;20424;-75
2022/10/24 11:02:21;;;;;;;6.90;2.30;;;;;;;19.14;78.91;100137.59;4968482;28;20416;-75
2022/10/24 11:05:05;;;;;;;10.45;2.55;;;;;;;19.30;78.20;100140.00;5003867;28;20412;-75
2022/10/24 11:07:33;;;;;;;6.30;2.17;;;;;;;19.27;77.67;100138.66;4986628;28;20462;-75
2022/10/24 11:10:04;;;;;;;10.60;2.10;;;;;;;19.16;77.02;100129.06;4971019;28;20400;-75
2022/10/24 11:12:41;;;;;;;4.80;2.10;;;;;;;19.06;77.43;100132.03;4971893;28;20439;-75
2022/10/24 11:15:19;;;;;;;6.80;2.25;;;;;;;19.09;77.07;100129.47;4973814;28;20459;-75
2022/10/24 11:18:14;;;;;;;7.13;2.28;;;;;;;19.15;76.85;100132.91;4974253;28;20729;-78
2022/10/24 11:20:46;;;;;;;9.37;1.73;;;;;;;19.22;76.24;100133.31;4973394;28;20448;-75
2022/10/24 11:23:17;;;;;;;2.25;1.75;;;;;;;19.30;75.47;100127.06;4971416;28;20919;-76
2022/10/24 11:25:51;;;;;;;5.60;1.77;;;;;;;19.33;75.62;100131.13;4972534;28;20412;-76
2022/10/24 11:28:35;;;;;;;8.70;1.85;;;;;;;19.35;75.46;100120.63;4969023;28;20428;-76
2022/10/24 11:31:17;;;;;;;6.43;2.10;;;;;;;19.37;75.23;100126.63;4972366;28;20474;-76
2022/10/24 11:33:55;;;;;;;4.40;1.60;;;;;;;19.37;74.96;100127.44;4968176;28;20408;-75
2022/10/24 11:36:36;;;;;;;6.45;1.70;;;;;;;19.41;74.57;100124.91;4969930;28;20436;-75
2022/10/24 11:39:10;;;;;;;9.07;2.20;;;;;;;19.49;74.25;100127.75;4969165;28;20462;-76
2022/10/24 11:42:09;;;;;;;5.60;2.20;;;;;;;19.49;73.83;100124.19;4970529;28;20766;-77